x

Buoy E01 - Central Maine Shelf (44032) Wave Buoy

5:04am - Sun 24th Jun 2018 All times are EDT. -4 hours from GMT.

  • Sig Wave height 2.3ft
  • Peak Period 8s
  • Wind
    7mph, 7mph gusts
  • Sea Temp 56°f
  • Air Temp 55°f
  • Sea Pressure 1007.3mb
  • Buoy E01 - Central Maine Shelf
  • Buoy E01 - Central Maine Shelf

More Historic Weather Station data

Upgrade to MSW Pro to gain access to the past 30 days of data for over 8000 Wavebouys and Weather Stations around the globe.

Join

Comparision Forecast

View Surf forecast
   
Sun 06/24 5:04am 2.5ft 8s 7 7 mph 1007.3mb 56f 55f
4:04am 2ft 8s 4 7 mph 1007.3mb 56f 55f
3:04am 2ft 8s 7 7 mph 1007.5mb 56f 55f
2:04am 2ft 8s 9 9 mph 1007.9mb 56f 55f
1:04am 2ft 8s 9 11 mph 1008.3mb 56f 55f
12:04am 2ft 8s 9 9 mph 1008.4mb 56f 55f
Sat 06/23 11:04pm 2ft 8s 7 7 mph 1008.9mb 56f 55f
10:04pm 2ft 8s 9 11 mph 1009.4mb 56f 55f
9:04pm 2ft 8s 9 9 mph 1009.7mb 56f 55f
8:04pm 2ft 6s 13 13 mph 1009.1mb 55f 55f
7:04pm 2.5ft 8s 9 11 mph 1009.8mb 55f 55f
6:04pm 1.6ft 4s 11 11 mph 1010.5mb 55f 55f
5:04pm 2ft 8s 11 13 mph 1011.3mb 55f 55f
4:04pm 1.3ft 8s 11 13 mph 1012.2mb 56f 55f
3:04pm 1ft 3s 7 9 mph 1013.3mb 56f 55f
2:04pm 1.3ft 8s 9 9 mph 1014mb 56f 55f
1:04pm 1.3ft 8s 11 13 mph 1014.6mb 56f 56f
12:04pm 1.3ft 8s 7 9 mph 1015.5mb 56f 57f
11:04am 1ft 8s 4 7 mph 1015.8mb 56f 57f
10:04am 1.3ft 8s 9 11 mph 1015.4mb 56f 57f
9:04am 1.3ft 6s 7 9 mph 1016mb 56f 57f
8:04am 1ft 3s 7 9 mph 1016mb 56f 57f
7:04am 1.3ft 6s 7 9 mph 1016mb 56f 57f
6:04am 1.6ft 6s 4 7 mph 1016.2mb 56f 57f
5:04am 1.6ft 3s 4 7 mph 1016.3mb 56f 57f
4:04am 1.6ft 8s 7 7 mph 1016.3mb 55f 57f
3:04am 1.3ft 8s 7 7 mph 1016.8mb 55f 57f
2:04am 1ft 8s 7 9 mph 1017mb 56f 57f
1:04am 1.3ft 8s 7 7 mph 1017mb 56f 57f
12:04am 1ft 8s 7 9 mph 1017.2mb 56f 58f
Fri 06/22 11:04pm 1ft 8s 7 7 mph 1017.1mb 56f 58f
10:04pm 1.3ft 8s 7 7 mph 1017.1mb 56f 58f
9:04pm 1.3ft 8s 7 7 mph 1017mb 57f 57f
8:04pm 1.3ft 6s 4 4 mph 1016.8mb 57f 58f
7:04pm 1.3ft 6s 7 7 mph 1016.5mb 57f 58f
6:04pm 1.3ft 8s 7 7 mph 1016.4mb 58f 58f
5:04pm 1.3ft 8s 4 7 mph 1016.7mb 58f 58f
4:04pm 1ft 8s 7 9 mph 1017.3mb 58f 59f
3:04pm 1ft 8s 4 4 mph 1017.3mb 58f 59f
2:04pm 1.3ft 8s 7 7 mph 1017.5mb 59f 58f
1:04pm 1ft 8s 4 4 mph 1017.7mb 58f 58f
12:04pm 1.3ft 8s 7 7 mph 1017.8mb 57f 57f
11:04am 1ft 8s 2 4 mph 1018mb 56f 56f
10:04am 1.3ft 6s 7 7 mph 1017.7mb 56f 56f
9:04am 1.3ft 8s 7 9 mph 1017.4mb 55f 56f
8:04am 1.3ft 6s 9 9 mph 1016.8mb 55f 55f
7:04am 1.6ft 6s 13 16 mph 1015.5mb 55f 56f
6:04am 2ft 6s 11 13 mph 1014.6mb 55f 56f
5:04am 0.7ft  -  11 13 mph 1014mb 55f 56f
4:04am 0.7ft  -  9 11 mph 1013.3mb 55f 56f
3:04am 1.3ft 8s 11 11 mph 1013mb 55f 57f
2:04am 1ft 8s 11 11 mph 1012.5mb 55f 57f
1:04am 1.3ft 8s 7 7 mph 1012.7mb 55f 56f
12:04am 1.3ft 8s 7 7 mph 1012.2mb 55f 57f
Thu 06/21 11:04pm 1ft 8s 4 7 mph 1011.9mb 55f 57f
10:04pm 1.3ft 8s 4 7 mph 1011.2mb 55f 56f
9:04pm 1.3ft 6s 4 4 mph 1010.1mb 55f 57f
8:04pm 1.3ft 6s 4 7 mph 1009.3mb 55f 57f
7:04pm 1.3ft 6s 9 11 mph 1008.4mb 56f 58f
6:04pm 1.6ft 8s 9 9 mph 1007.7mb 56f 59f
5:04pm 1.6ft 6s 7 9 mph 1007.6mb 56f 59f
4:04pm 1.3ft 8s 7 7 mph 1007.5mb 56f 58f
3:04pm 1.6ft 8s 7 7 mph 1007.5mb 55f 58f
2:04pm 1.6ft 5s 4 4 mph 1007.6mb 55f 58f
1:04pm 1.6ft 8s 7 7 mph 1007.5mb 55f 58f
12:04pm 1.3ft 8s 7 7 mph 1007.7mb 55f 58f
11:04am 1.6ft 5s 7 9 mph 1007.5mb 55f 59f
9:04am 2ft 5s 4 4 mph 1006.6mb 55f 58f
8:04am 2ft 5s 4 4 mph 1006.1mb 54f 57f
7:04am 2.5ft 5s 4 4 mph 1005.5mb 55f 57f
6:04am 2.5ft 5s 4 4 mph 1004.8mb 55f 56f
5:04am 2ft 5s 7 7 mph 1004.2mb 55f 57f
4:04am 2ft 4s 7 9 mph 1004.2mb 55f 57f
3:04am 2ft 4s 9 9 mph 1004.3mb 55f 58f
2:04am 2ft 4s 7 9 mph 1004.5mb 55f 58f
1:04am 2.5ft 4s 11 11 mph 1004.5mb 55f 58f
12:04am 2.5ft 4s 11 11 mph 1004.9mb 55f 59f
Wed 06/20 11:04pm 2.5ft 4s 11 13 mph 1004.9mb 55f 60f
10:04pm 2.5ft 4s 11 13 mph 1005mb 55f 60f
9:04pm 3ft 4s 11 13 mph 1004.9mb 55f 59f
8:04pm 2.5ft 6s 11 13 mph 1004.7mb 55f 59f
6:04pm 3ft 4s 16 18 mph 1005mb 55f 60f
5:04pm 3ft 6s 16 18 mph 1005.7mb 55f 60f
4:04pm 2.5ft 6s 13 16 mph 1006.4mb 56f 60f
2:04pm 2.5ft 6s 11 13 mph 1007.7mb 55f 60f
1:04pm 2ft 8s 9 11 mph 1008.4mb 55f 59f
12:04pm 2ft 6s 9 11 mph 1009.2mb 55f 58f
11:04am 1.6ft 8s 11 13 mph 1009.8mb 55f 58f